sensor_id;sensor_type;location;lat;lon;timestamp;pressure;altitude;pressure_sealevel;temperature;humidity
7075;BME280;3578;51.568;6.932;2023-05-07T00:01:41;51070.31;;;-144.14;100.00
7075;BME280;3578;51.568;6.932;2023-05-07T00:04:08;51030.25;;;-144.14;100.00
7075;BME280;3578;51.568;6.932;2023-05-07T00:06:35;50990.22;;;-144.14;100.00
7075;BME280;3578;51.568;6.932;2023-05-07T00:09:03;50994.22;;;-144.14;100.00
7075;BME280;3578;51.568;6.932;2023-05-07T00:11:31;50962.16;;;-144.14;100.00
7075;BME280;3578;51.568;6.932;2023-05-07T00:13:58;50988.22;;;-144.14;100.00
7075;BME280;3578;51.568;6.932;2023-05-07T00:16:25;50988.22;;;-144.14;100.00
7075;BME280;3578;51.568;6.932;2023-05-07T00:18:52;51004.22;;;-144.14;100.00
7075;BME280;3578;51.568;6.932;2023-05-07T00:21:19;51062.31;;;-144.14;100.00
7075;BME280;3578;51.568;6.932;2023-05-07T00:23:47;51046.28;;;-144.14;100.00
7075;BME280;3578;51.568;6.932;2023-05-07T00:26:15;51078.34;;;-144.14;100.00
7075;BME280;3578;51.568;6.932;2023-05-07T00:28:42;51102.38;;;-144.14;100.00
7075;BME280;3578;51.568;6.932;2023-05-07T00:31:09;51076.31;;;-144.14;100.00
7075;BME280;3578;51.568;6.932;2023-05-07T00:33:37;51030.25;;;-144.14;100.00
7075;BME280;3578;51.568;6.932;2023-05-07T00:36:05;51100.38;;;-144.14;100.00
7075;BME280;3578;51.568;6.932;2023-05-07T00:38:32;51104.38;;;-144.14;100.00
7075;BME280;3578;51.568;6.932;2023-05-07T00:40:59;51116.38;;;-144.14;100.00
7075;BME280;3578;51.568;6.932;2023-05-07T00:43:29;51136.41;;;-144.14;100.00
7075;BME280;3578;51.568;6.932;2023-05-07T00:45:56;51162.44;;;-144.14;100.00
7075;BME280;3578;51.568;6.932;2023-05-07T00:48:23;51200.50;;;-144.14;100.00
7075;BME280;3578;51.568;6.932;2023-05-07T00:50:51;51210.53;;;-144.14;100.00
7075;BME280;3578;51.568;6.932;2023-05-07T00:53:19;51154.44;;;-144.14;100.00
7075;BME280;3578;51.568;6.932;2023-05-07T00:55:46;51254.59;;;-144.14;100.00
7075;BME280;3578;51.568;6.932;2023-05-07T00:58:13;51206.50;;;-144.14;100.00
7075;BME280;3578;51.568;6.932;2023-05-07T01:00:41;51124.41;;;-144.14;100.00
7075;BME280;3578;51.568;6.932;2023-05-07T01:03:08;51038.28;;;-144.14;100.00
7075;BME280;3578;51.568;6.932;2023-05-07T01:05:35;50982.19;;;-144.14;100.00
7075;BME280;3578;51.568;6.932;2023-05-07T01:08:03;50968.19;;;-144.14;100.00
7075;BME280;3578;51.568;6.932;2023-05-07T01:10:30;50934.13;;;-144.14;100.00
7075;BME280;3578;51.568;6.932;2023-05-07T01:12:59;50942.16;;;-144.14;100.00
7075;BME280;3578;51.568;6.932;2023-05-07T01:15:26;50930.13;;;-144.14;100.00
7075;BME280;3578;51.568;6.932;2023-05-07T01:17:56;50932.13;;;-144.14;100.00
7075;BME280;3578;51.568;6.932;2023-05-07T01:20:23;50848.00;;;-144.14;100.00
7075;BME280;3578;51.568;6.932;2023-05-07T01:22:52;50830.00;;;-144.14;100.00
7075;BME280;3578;51.568;6.932;2023-05-07T01:25:20;50872.03;;;-144.14;100.00
7075;BME280;3578;51.568;6.932;2023-05-07T01:27:47;50926.13;;;-144.14;100.00
7075;BME280;3578;51.568;6.932;2023-05-07T01:30:14;50854.03;;;-144.14;100.00
7075;BME280;3578;51.568;6.932;2023-05-07T01:32:45;50821.97;;;-144.14;100.00
7075;BME280;3578;51.568;6.932;2023-05-07T01:35:19;50761.91;;;-144.14;100.00
7075;BME280;3578;51.568;6.932;2023-05-07T01:37:46;50735.88;;;-144.14;100.00
7075;BME280;3578;51.568;6.932;2023-05-07T01:40:15;50769.91;;;-144.14;100.00
7075;BME280;3578;51.568;6.932;2023-05-07T01:42:43;50799.94;;;-144.14;100.00
7075;BME280;3578;51.568;6.932;2023-05-07T01:45:11;50773.91;;;-144.14;100.00
7075;BME280;3578;51.568;6.932;2023-05-07T01:47:39;50966.19;;;-144.14;100.00
7075;BME280;3578;51.568;6.932;2023-05-07T01:50:07;50972.19;;;-144.14;100.00
7075;BME280;3578;51.568;6.932;2023-05-07T01:52:37;50990.22;;;-144.14;100.00
7075;BME280;3578;51.568;6.932;2023-05-07T01:55:06;50970.19;;;-144.14;100.00
7075;BME280;3578;51.568;6.932;2023-05-07T01:57:34;51084.34;;;-144.14;100.00
7075;BME280;3578;51.568;6.932;2023-05-07T02:00:02;51152.44;;;-144.14;100.00
7075;BME280;3578;51.568;6.932;2023-05-07T02:02:31;51168.47;;;-144.14;100.00
7075;BME280;3578;51.568;6.932;2023-05-07T02:04:59;51120.38;;;-144.14;100.00
7075;BME280;3578;51.568;6.932;2023-05-07T02:07:26;51146.44;;;-144.14;100.00
7075;BME280;3578;51.568;6.932;2023-05-07T02:09:53;51102.38;;;-144.14;100.00
7075;BME280;3578;51.568;6.932;2023-05-07T02:12:21;51128.41;;;-144.14;100.00
7075;BME280;3578;51.568;6.932;2023-05-07T02:14:49;51134.41;;;-144.14;100.00
7075;BME280;3578;51.568;6.932;2023-05-07T02:17:16;51160.44;;;-144.14;100.00
7075;BME280;3578;51.568;6.932;2023-05-07T02:19:43;51148.44;;;-144.14;100.00
7075;BME280;3578;51.568;6.932;2023-05-07T02:22:10;51080.34;;;-144.14;100.00
7075;BME280;3578;51.568;6.932;2023-05-07T02:24:37;51138.41;;;-144.14;100.00
7075;BME280;3578;51.568;6.932;2023-05-07T02:27:04;51150.44;;;-144.14;100.00
7075;BME280;3578;51.568;6.932;2023-05-07T02:29:31;51106.38;;;-144.14;100.00
7075;BME280;3578;51.568;6.932;2023-05-07T02:31:59;51094.34;;;-144.14;100.00
7075;BME280;3578;51.568;6.932;2023-05-07T02:34:26;51004.22;;;-144.14;100.00
7075;BME280;3578;51.568;6.932;2023-05-07T02:36:53;50990.22;;;-144.14;100.00
7075;BME280;3578;51.568;6.932;2023-05-07T02:39:21;50958.16;;;-144.14;100.00
7075;BME280;3578;51.568;6.932;2023-05-07T02:41:48;50918.09;;;-144.14;100.00
7075;BME280;3578;51.568;6.932;2023-05-07T02:44:15;50924.13;;;-144.14;100.00
7075;BME280;3578;51.568;6.932;2023-05-07T02:46:42;50948.16;;;-144.14;100.00
7075;BME280;3578;51.568;6.932;2023-05-07T02:49:10;50926.13;;;-144.14;100.00
7075;BME280;3578;51.568;6.932;2023-05-07T02:51:37;50922.13;;;-144.14;100.00
7075;BME280;3578;51.568;6.932;2023-05-07T02:54:04;50950.16;;;-144.14;100.00
7075;BME280;3578;51.568;6.932;2023-05-07T02:56:31;50966.19;;;-144.14;100.00
7075;BME280;3578;51.568;6.932;2023-05-07T02:58:58;51022.25;;;-144.14;100.00
7075;BME280;3578;51.568;6.932;2023-05-07T03:01:25;50970.19;;;-144.14;100.00
7075;BME280;3578;51.568;6.932;2023-05-07T03:03:52;50988.22;;;-144.14;100.00
7075;BME280;3578;51.568;6.932;2023-05-07T03:06:20;50994.22;;;-144.14;100.00
7075;BME280;3578;51.568;6.932;2023-05-07T03:08:47;50958.16;;;-144.14;100.00
7075;BME280;3578;51.568;6.932;2023-05-07T03:11:14;50994.22;;;-144.14;100.00
7075;BME280;3578;51.568;6.932;2023-05-07T03:13:41;51014.25;;;-144.14;100.00
7075;BME280;3578;51.568;6.932;2023-05-07T03:16:08;50994.22;;;-144.14;100.00
7075;BME280;3578;51.568;6.932;2023-05-07T03:18:35;50978.19;;;-144.14;100.00
7075;BME280;3578;51.568;6.932;2023-05-07T03:21:02;50982.19;;;-144.14;100.00
7075;BME280;3578;51.568;6.932;2023-05-07T03:23:30;50986.19;;;-144.14;100.00
7075;BME280;3578;51.568;6.932;2023-05-07T03:25:57;51034.28;;;-144.14;100.00
7075;BME280;3578;51.568;6.932;2023-05-07T03:28:24;51008.22;;;-144.14;100.00
7075;BME280;3578;51.568;6.932;2023-05-07T03:30:51;50976.19;;;-144.14;100.00
7075;BME280;3578;51.568;6.932;2023-05-07T03:33:18;50962.16;;;-144.14;100.00
7075;BME280;3578;51.568;6.932;2023-05-07T03:35:45;50950.16;;;-144.14;100.00
7075;BME280;3578;51.568;6.932;2023-05-07T03:38:12;50916.09;;;-144.14;100.00
7075;BME280;3578;51.568;6.932;2023-05-07T03:40:40;50886.06;;;-144.14;100.00
7075;BME280;3578;51.568;6.932;2023-05-07T03:43:07;50884.06;;;-144.14;100.00
7075;BME280;3578;51.568;6.932;2023-05-07T03:45:34;50886.06;;;-144.14;100.00
7075;BME280;3578;51.568;6.932;2023-05-07T03:48:01;50882.06;;;-144.14;100.00
7075;BME280;3578;51.568;6.932;2023-05-07T03:50:28;50910.09;;;-144.14;100.00
7075;BME280;3578;51.568;6.932;2023-05-07T03:52:55;50884.06;;;-144.14;100.00
7075;BME280;3578;51.568;6.932;2023-05-07T03:55:22;50793.94;;;-144.14;100.00
7075;BME280;3578;51.568;6.932;2023-05-07T03:57:51;50795.94;;;-144.14;100.00
7075;BME280;3578;51.568;6.932;2023-05-07T04:00:18;50805.97;;;-144.14;100.00
7075;BME280;3578;51.568;6.932;2023-05-07T04:02:45;50789.94;;;-144.14;100.00
7075;BME280;3578;51.568;6.932;2023-05-07T04:05:13;50659.78;;;-144.14;100.00
7075;BME280;3578;51.568;6.932;2023-05-07T04:07:40;50687.81;;;-144.14;100.00
7075;BME280;3578;51.568;6.932;2023-05-07T04:10:08;50675.78;;;-144.14;100.00
7075;BME280;3578;51.568;6.932;2023-05-07T04:12:35;50721.84;;;-144.14;100.00
7075;BME280;3578;51.568;6.932;2023-05-07T04:15:05;50707.84;;;-144.14;100.00
7075;BME280;3578;51.568;6.932;2023-05-07T04:17:32;50699.81;;;-144.14;100.00
7075;BME280;3578;51.568;6.932;2023-05-07T04:19:59;50787.94;;;-144.14;100.00
7075;BME280;3578;51.568;6.932;2023-05-07T04:22:26;50803.97;;;-144.14;100.00
7075;BME280;3578;51.568;6.932;2023-05-07T04:24:53;50773.91;;;-144.14;100.00
7075;BME280;3578;51.568;6.932;2023-05-07T04:27:20;50797.94;;;-144.14;100.00
7075;BME280;3578;51.568;6.932;2023-05-07T04:29:47;50761.91;;;-144.14;100.00
7075;BME280;3578;51.568;6.932;2023-05-07T04:32:15;50815.97;;;-144.14;100.00
7075;BME280;3578;51.568;6.932;2023-05-07T04:34:43;50809.97;;;-144.14;100.00
7075;BME280;3578;51.568;6.932;2023-05-07T04:37:10;50821.97;;;-144.14;100.00
7075;BME280;3578;51.568;6.932;2023-05-07T04:39:37;50842.00;;;-144.14;100.00
7075;BME280;3578;51.568;6.932;2023-05-07T04:42:04;50832.00;;;-144.14;100.00
7075;BME280;3578;51.568;6.932;2023-05-07T04:44:34;50805.97;;;-144.14;100.00
7075;BME280;3578;51.568;6.932;2023-05-07T04:47:02;50850.03;;;-144.14;100.00
7075;BME280;3578;51.568;6.932;2023-05-07T04:49:31;50848.00;;;-144.14;100.00
7075;BME280;3578;51.568;6.932;2023-05-07T04:51:57;50898.09;;;-144.14;100.00
7075;BME280;3578;51.568;6.932;2023-05-07T04:54:24;50926.13;;;-144.14;100.00
7075;BME280;3578;51.568;6.932;2023-05-07T04:56:52;50922.13;;;-144.14;100.00
7075;BME280;3578;51.568;6.932;2023-05-07T04:59:19;50978.19;;;-144.14;100.00
7075;BME280;3578;51.568;6.932;2023-05-07T05:01:46;50968.19;;;-144.14;100.00
7075;BME280;3578;51.568;6.932;2023-05-07T05:04:13;50978.19;;;-144.14;100.00
7075;BME280;3578;51.568;6.932;2023-05-07T05:06:41;50988.22;;;-144.14;100.00
7075;BME280;3578;51.568;6.932;2023-05-07T05:09:08;50988.22;;;-144.14;100.00
7075;BME280;3578;51.568;6.932;2023-05-07T05:11:35;51038.28;;;-144.14;100.00
7075;BME280;3578;51.568;6.932;2023-05-07T05:14:02;51028.25;;;-144.14;100.00
7075;BME280;3578;51.568;6.932;2023-05-07T05:16:29;51068.31;;;-144.14;100.00
7075;BME280;3578;51.568;6.932;2023-05-07T05:18:56;51038.28;;;-144.14;100.00
7075;BME280;3578;51.568;6.932;2023-05-07T05:21:23;51092.34;;;-144.14;100.00
7075;BME280;3578;51.568;6.932;2023-05-07T05:23:51;51082.34;;;-144.14;100.00
7075;BME280;3578;51.568;6.932;2023-05-07T05:26:18;51098.34;;;-144.14;100.00
7075;BME280;3578;51.568;6.932;2023-05-07T05:28:46;51078.34;;;-144.14;100.00
7075;BME280;3578;51.568;6.932;2023-05-07T05:31:13;51074.31;;;-144.14;100.00
7075;BME280;3578;51.568;6.932;2023-05-07T05:33:40;51108.38;;;-144.14;100.00
7075;BME280;3578;51.568;6.932;2023-05-07T05:36:09;51094.34;;;-144.14;100.00
7075;BME280;3578;51.568;6.932;2023-05-07T05:38:37;51116.38;;;-144.14;100.00
7075;BME280;3578;51.568;6.932;2023-05-07T05:41:05;51154.44;;;-144.14;100.00
7075;BME280;3578;51.568;6.932;2023-05-07T05:43:32;51130.41;;;-144.14;100.00
7075;BME280;3578;51.568;6.932;2023-05-07T05:45:59;51216.53;;;-144.14;100.00
7075;BME280;3578;51.568;6.932;2023-05-07T05:48:28;51248.56;;;-144.14;100.00
7075;BME280;3578;51.568;6.932;2023-05-07T05:50:55;51234.56;;;-144.14;100.00
7075;BME280;3578;51.568;6.932;2023-05-07T05:53:22;51294.63;;;-144.14;100.00
7075;BME280;3578;51.568;6.932;2023-05-07T05:55:49;51246.56;;;-144.14;100.00
7075;BME280;3578;51.568;6.932;2023-05-07T05:58:18;51270.59;;;-144.14;100.00
7075;BME280;3578;51.568;6.932;2023-05-07T06:00:46;51338.72;;;-144.14;100.00
7075;BME280;3578;51.568;6.932;2023-05-07T06:03:14;51366.75;;;-144.14;99.67
7075;BME280;3578;51.568;6.932;2023-05-07T06:05:40;51398.78;;;-144.14;99.29
7075;BME280;3578;51.568;6.932;2023-05-07T06:08:07;51482.91;;;-144.14;98.43
7075;BME280;3578;51.568;6.932;2023-05-07T06:10:36;51597.09;;;-144.14;97.78
7075;BME280;3578;51.568;6.932;2023-05-07T06:13:03;51589.09;;;-144.14;97.38
7075;BME280;3578;51.568;6.932;2023-05-07T06:15:31;51689.25;;;-144.14;96.39
7075;BME280;3578;51.568;6.932;2023-05-07T06:17:58;51755.34;;;-144.14;96.10
7075;BME280;3578;51.568;6.932;2023-05-07T06:20:25;51755.34;;;-144.14;96.41
7075;BME280;3578;51.568;6.932;2023-05-07T06:22:52;51771.38;;;-144.14;96.81
7075;BME280;3578;51.568;6.932;2023-05-07T06:25:19;51763.34;;;-144.14;96.75
7075;BME280;3578;51.568;6.932;2023-05-07T06:27:46;51799.41;;;-144.14;97.08
7075;BME280;3578;51.568;6.932;2023-05-07T06:30:13;51695.25;;;-144.14;97.36
7075;BME280;3578;51.568;6.932;2023-05-07T06:32:42;51755.34;;;-144.14;97.46
7075;BME280;3578;51.568;6.932;2023-05-07T06:35:09;51759.34;;;-144.14;97.35
7075;BME280;3578;51.568;6.932;2023-05-07T06:37:36;51779.38;;;-144.14;96.38
7075;BME280;3578;51.568;6.932;2023-05-07T06:40:05;51819.44;;;-144.14;95.63
7075;BME280;3578;51.568;6.932;2023-05-07T06:42:33;51833.47;;;-144.14;95.86
7075;BME280;3578;51.568;6.932;2023-05-07T06:45:00;51855.50;;;-144.14;96.57
7075;BME280;3578;51.568;6.932;2023-05-07T06:47:28;51803.44;;;-144.14;97.29
7075;BME280;3578;51.568;6.932;2023-05-07T06:49:56;51839.47;;;-144.14;96.91
7075;BME280;3578;51.568;6.932;2023-05-07T06:52:23;51863.53;;;-144.14;96.98
7075;BME280;3578;51.568;6.932;2023-05-07T06:54:50;51911.59;;;-144.14;96.17
7075;BME280;3578;51.568;6.932;2023-05-07T06:57:17;51939.66;;;-144.14;95.67
7075;BME280;3578;51.568;6.932;2023-05-07T06:59:44;52023.78;;;-144.14;94.80
7075;BME280;3578;51.568;6.932;2023-05-07T07:02:11;52142.00;;;-144.14;93.49
7075;BME280;3578;51.568;6.932;2023-05-07T07:04:38;52200.09;;;-144.14;92.00
7075;BME280;3578;51.568;6.932;2023-05-07T07:07:07;52328.31;;;-144.14;90.43
7075;BME280;3578;51.568;6.932;2023-05-07T07:09:34;52416.47;;;-144.14;89.85
7075;BME280;3578;51.568;6.932;2023-05-07T07:12:01;52462.56;;;-144.14;89.54
7075;BME280;3578;51.568;6.932;2023-05-07T07:14:28;52510.66;;;-144.14;87.93
7075;BME280;3578;51.568;6.932;2023-05-07T07:16:55;52484.59;;;-144.14;87.97
7075;BME280;3578;51.568;6.932;2023-05-07T07:19:22;52486.59;;;-144.14;88.51
7075;BME280;3578;51.568;6.932;2023-05-07T07:21:49;52492.59;;;-144.14;87.96
7075;BME280;3578;51.568;6.932;2023-05-07T07:24:17;52514.66;;;-144.14;89.44
7075;BME280;3578;51.568;6.932;2023-05-07T07:26:46;52536.69;;;-144.14;90.01
7075;BME280;3578;51.568;6.932;2023-05-07T07:29:13;52737.06;;;-144.14;87.01
7075;BME280;3578;51.568;6.932;2023-05-07T07:31:40;52821.22;;;-144.14;85.43
7075;BME280;3578;51.568;6.932;2023-05-07T07:34:07;52789.16;;;-144.14;87.31
7075;BME280;3578;51.568;6.932;2023-05-07T07:36:34;52901.38;;;-144.14;86.07
7075;BME280;3578;51.568;6.932;2023-05-07T07:39:01;52993.56;;;-144.14;84.44
7075;BME280;3578;51.568;6.932;2023-05-07T07:41:29;53107.78;;;-144.14;81.57
7075;BME280;3578;51.568;6.932;2023-05-07T07:43:56;53187.94;;;-144.14;83.83
7075;BME280;3578;51.568;6.932;2023-05-07T07:46:23;53290.16;;;-144.14;79.77
7075;BME280;3578;51.568;6.932;2023-05-07T07:48:52;53306.19;;;-144.14;81.33
7075;BME280;3578;51.568;6.932;2023-05-07T07:51:19;53404.38;;;-144.14;79.04
7075;BME280;3578;51.568;6.932;2023-05-07T07:53:46;53536.66;;;-144.14;79.73
7075;BME280;3578;51.568;6.932;2023-05-07T07:56:13;53598.81;;;-144.14;79.27
7075;BME280;3578;51.568;6.932;2023-05-07T07:58:42;53626.88;;;-144.14;79.87
7075;BME280;3578;51.568;6.932;2023-05-07T08:01:09;53590.78;;;-144.14;80.11
7075;BME280;3578;51.568;6.932;2023-05-07T08:03:37;53528.66;;;-144.14;80.24
7075;BME280;3578;51.568;6.932;2023-05-07T08:06:05;53518.63;;;-144.14;80.10
7075;BME280;3578;51.568;6.932;2023-05-07T08:08:31;53484.56;;;-144.14;82.33
7075;BME280;3578;51.568;6.932;2023-05-07T08:10:58;53446.47;;;-144.14;84.42
7075;BME280;3578;51.568;6.932;2023-05-07T08:13:25;53464.50;;;-144.14;83.30
7075;BME280;3578;51.568;6.932;2023-05-07T08:15:54;53522.63;;;-144.14;81.48
7075;BME280;3578;51.568;6.932;2023-05-07T08:18:21;53534.66;;;-144.14;81.07
7075;BME280;3578;51.568;6.932;2023-05-07T08:20:48;53574.75;;;-144.14;81.45
7075;BME280;3578;51.568;6.932;2023-05-07T08:23:15;53622.84;;;-144.14;80.41
7075;BME280;3578;51.568;6.932;2023-05-07T08:25:42;53616.84;;;-144.14;81.09
7075;BME280;3578;51.568;6.932;2023-05-07T08:28:09;53654.91;;;-144.14;79.92
7075;BME280;3578;51.568;6.932;2023-05-07T08:30:37;53682.97;;;-144.14;80.85
7075;BME280;3578;51.568;6.932;2023-05-07T08:33:05;53695.00;;;-144.14;80.42
7075;BME280;3578;51.568;6.932;2023-05-07T08:35:32;53693.00;;;-144.14;79.67
7075;BME280;3578;51.568;6.932;2023-05-07T08:37:59;53709.03;;;-144.14;79.86
7075;BME280;3578;51.568;6.932;2023-05-07T08:40:26;53721.06;;;-144.14;79.21
7075;BME280;3578;51.568;6.932;2023-05-07T08:42:54;53721.06;;;-144.14;80.83
7075;BME280;3578;51.568;6.932;2023-05-07T08:45:23;53723.06;;;-144.14;81.24
7075;BME280;3578;51.568;6.932;2023-05-07T08:47:59;53729.09;;;-144.14;81.75
7075;BME280;3578;51.568;6.932;2023-05-07T08:50:30;53745.13;;;-144.14;81.17
7075;BME280;3578;51.568;6.932;2023-05-07T08:52:57;53699.03;;;-144.14;81.79
7075;BME280;3578;51.568;6.932;2023-05-07T08:55:24;53707.03;;;-144.14;83.98
7075;BME280;3578;51.568;6.932;2023-05-07T08:57:51;53789.22;;;-144.14;81.78
7075;BME280;3578;51.568;6.932;2023-05-07T09:00:19;53797.22;;;-144.14;80.54
7075;BME280;3578;51.568;6.932;2023-05-07T09:02:46;53857.38;;;-144.14;79.54
7075;BME280;3578;51.568;6.932;2023-05-07T09:05:13;53885.44;;;-144.14;77.70
7075;BME280;3578;51.568;6.932;2023-05-07T09:07:41;53907.47;;;-144.14;77.34
7075;BME280;3578;51.568;6.932;2023-05-07T09:10:09;53935.53;;;-144.14;78.28
7075;BME280;3578;51.568;6.932;2023-05-07T09:12:36;53987.66;;;-144.14;78.62
7075;BME280;3578;51.568;6.932;2023-05-07T09:15:05;54049.81;;;-144.14;79.01
7075;BME280;3578;51.568;6.932;2023-05-07T09:17:32;54103.91;;;-144.14;77.68
7075;BME280;3578;51.568;6.932;2023-05-07T09:20:03;54212.19;;;-144.14;78.39
7075;BME280;3578;51.568;6.932;2023-05-07T09:22:32;54260.28;;;-144.14;77.17
7075;BME280;3578;51.568;6.932;2023-05-07T09:25:00;54318.41;;;-144.14;74.44
7075;BME280;3578;51.568;6.932;2023-05-07T09:27:27;54402.63;;;-144.14;72.10
7075;BME280;3578;51.568;6.932;2023-05-07T09:29:54;54408.63;;;-144.14;68.23
7075;BME280;3578;51.568;6.932;2023-05-07T09:32:21;54402.63;;;-144.14;69.39
7075;BME280;3578;51.568;6.932;2023-05-07T09:34:48;54468.78;;;-144.14;70.32
7075;BME280;3578;51.568;6.932;2023-05-07T09:37:15;54516.91;;;-144.14;71.34
7075;BME280;3578;51.568;6.932;2023-05-07T09:39:45;54605.09;;;-144.14;67.54
7075;BME280;3578;51.568;6.932;2023-05-07T09:42:14;54711.38;;;-144.14;69.52
7075;BME280;3578;51.568;6.932;2023-05-07T09:44:42;54803.59;;;-144.14;69.56
7075;BME280;3578;51.568;6.932;2023-05-07T09:47:10;54945.97;;;-144.14;59.80
7075;BME280;3578;51.568;6.932;2023-05-07T09:49:39;55028.16;;;-144.14;59.31
7075;BME280;3578;51.568;6.932;2023-05-07T09:52:08;55130.44;;;-144.14;58.19
7075;BME280;3578;51.568;6.932;2023-05-07T09:54:36;55134.44;;;-144.14;59.97
7075;BME280;3578;51.568;6.932;2023-05-07T09:57:05;55110.38;;;-144.14;61.87
7075;BME280;3578;51.568;6.932;2023-05-07T09:59:35;55172.53;;;-144.14;62.34
7075;BME280;3578;51.568;6.932;2023-05-07T10:02:04;55226.69;;;-144.14;56.79
7075;BME280;3578;51.568;6.932;2023-05-07T10:04:32;55192.59;;;-144.14;62.53
7075;BME280;3578;51.568;6.932;2023-05-07T10:06:59;55240.72;;;-144.14;62.83
7075;BME280;3578;51.568;6.932;2023-05-07T10:09:27;55278.81;;;-144.14;59.81
7075;BME280;3578;51.568;6.932;2023-05-07T10:11:54;55343.00;;;-144.14;61.91
7075;BME280;3578;51.568;6.932;2023-05-07T10:14:22;55347.00;;;-144.14;63.46
7075;BME280;3578;51.568;6.932;2023-05-07T10:16:51;55355.03;;;-144.14;59.61
7075;BME280;3578;51.568;6.932;2023-05-07T10:19:20;55298.88;;;-144.14;59.28
7075;BME280;3578;51.568;6.932;2023-05-07T10:21:54;55306.91;;;-144.14;58.43
7075;BME280;3578;51.568;6.932;2023-05-07T10:24:25;55351.00;;;-144.14;60.36
7075;BME280;3578;51.568;6.932;2023-05-07T10:26:53;55395.13;;;-144.14;63.47
7075;BME280;3578;51.568;6.932;2023-05-07T10:29:32;55391.13;;;-144.14;61.15
7075;BME280;3578;51.568;6.932;2023-05-07T10:32:17;55463.31;;;-144.14;55.95
7075;BME280;3578;51.568;6.932;2023-05-07T10:34:49;55479.34;;;-144.14;58.79
7075;BME280;3578;51.568;6.932;2023-05-07T10:37:18;55553.56;;;-144.14;57.21
7075;BME280;3578;51.568;6.932;2023-05-07T10:39:45;55559.56;;;-144.14;63.05
7075;BME280;3578;51.568;6.932;2023-05-07T10:42:14;55701.97;;;-144.14;55.77
7075;BME280;3578;51.568;6.932;2023-05-07T10:44:41;55792.22;;;-144.14;52.36
7075;BME280;3578;51.568;6.932;2023-05-07T10:47:11;55784.19;;;-144.14;54.49
7075;BME280;3578;51.568;6.932;2023-05-07T10:50:20;55744.09;;;-144.14;54.19
7075;BME280;3578;51.568;6.932;2023-05-07T10:53:23;55800.25;;;-144.14;53.49
7075;BME280;3578;51.568;6.932;2023-05-07T10:56:24;55832.31;;;-144.14;51.53
7075;BME280;3578;51.568;6.932;2023-05-07T10:58:52;55914.56;;;-144.14;50.21
7075;BME280;3578;51.568;6.932;2023-05-07T11:01:50;55976.72;;;-144.14;50.98
7075;BME280;3578;51.568;6.932;2023-05-07T11:04:18;55970.72;;;-144.14;54.88
7075;BME280;3578;51.568;6.932;2023-05-07T11:07:23;56004.81;;;-144.14;53.73
7075;BME280;3578;51.568;6.932;2023-05-07T11:10:02;56032.91;;;-144.14;51.19
7075;BME280;3578;51.568;6.932;2023-05-07T11:12:50;56044.94;;;-144.14;54.42
7075;BME280;3578;51.568;6.932;2023-05-07T11:15:39;56113.13;;;-144.14;51.63
7075;BME280;3578;51.568;6.932;2023-05-07T11:18:07;56147.22;;;-144.14;54.03
7075;BME280;3578;51.568;6.932;2023-05-07T11:20:56;56259.56;;;-144.14;51.16
7075;BME280;3578;51.568;6.932;2023-05-07T11:23:56;56341.78;;;-144.14;55.32
7075;BME280;3578;51.568;6.932;2023-05-07T11:26:24;56476.19;;;-144.14;51.64
7075;BME280;3578;51.568;6.932;2023-05-07T11:28:52;56466.16;;;-144.14;48.54
7075;BME280;3578;51.568;6.932;2023-05-07T11:31:25;56448.09;;;-144.14;48.78
7075;BME280;3578;51.568;6.932;2023-05-07T11:33:54;56522.34;;;-144.14;47.70
7075;BME280;3578;51.568;6.932;2023-05-07T11:36:23;56540.38;;;-144.14;47.48
7075;BME280;3578;51.568;6.932;2023-05-07T11:38:50;56502.28;;;-144.14;47.23
7075;BME280;3578;51.568;6.932;2023-05-07T11:41:17;56508.28;;;-144.14;46.90
7075;BME280;3578;51.568;6.932;2023-05-07T11:43:55;56514.31;;;-144.14;46.68
7075;BME280;3578;51.568;6.932;2023-05-07T11:46:23;56504.28;;;-144.14;46.47
7075;BME280;3578;51.568;6.932;2023-05-07T11:48:50;56500.25;;;-144.14;47.35
7075;BME280;3578;51.568;6.932;2023-05-07T11:51:24;56468.16;;;-144.14;49.55
7075;BME280;3578;51.568;6.932;2023-05-07T11:53:52;56446.09;;;-144.14;46.33
7075;BME280;3578;51.568;6.932;2023-05-07T11:56:19;56454.13;;;-144.14;46.26
7075;BME280;3578;51.568;6.932;2023-05-07T11:58:47;56528.34;;;-144.14;47.13
7075;BME280;3578;51.568;6.932;2023-05-07T12:01:15;56646.72;;;-144.14;47.70
7075;BME280;3578;51.568;6.932;2023-05-07T12:03:46;56722.94;;;-144.14;46.03
7075;BME280;3578;51.568;6.932;2023-05-07T12:06:15;56811.22;;;-144.14;44.66
7075;BME280;3578;51.568;6.932;2023-05-07T12:08:45;56887.44;;;-144.14;44.07
7075;BME280;3578;51.568;6.932;2023-05-07T12:11:22;56921.56;;;-144.14;44.95
7075;BME280;3578;51.568;6.932;2023-05-07T12:13:49;57066.00;;;-144.14;45.62
7075;BME280;3578;51.568;6.932;2023-05-07T12:16:16;57124.19;;;-144.14;44.63
7075;BME280;3578;51.568;6.932;2023-05-07T12:18:44;57262.63;;;-144.14;44.56
7075;BME280;3578;51.568;6.932;2023-05-07T12:21:12;57324.84;;;-144.14;42.71
7075;BME280;3578;51.568;6.932;2023-05-07T12:23:39;57344.91;;;-144.14;43.47
7075;BME280;3578;51.568;6.932;2023-05-07T12:26:08;57393.06;;;-144.14;43.30
7075;BME280;3578;51.568;6.932;2023-05-07T12:28:39;57413.13;;;-144.14;42.71
7075;BME280;3578;51.568;6.932;2023-05-07T12:31:07;57389.03;;;-144.14;44.28
7075;BME280;3578;51.568;6.932;2023-05-07T12:33:35;57332.88;;;-144.14;43.81
7075;BME280;3578;51.568;6.932;2023-05-07T12:36:06;57290.72;;;-144.14;47.22
7075;BME280;3578;51.568;6.932;2023-05-07T12:38:38;57282.69;;;-144.14;46.05
7075;BME280;3578;51.568;6.932;2023-05-07T12:41:09;57266.66;;;-144.14;46.00
7075;BME280;3578;51.568;6.932;2023-05-07T12:43:36;57276.69;;;-144.14;47.56
7075;BME280;3578;51.568;6.932;2023-05-07T12:46:06;57244.56;;;-144.14;49.31
7075;BME280;3578;51.568;6.932;2023-05-07T12:48:35;57268.66;;;-144.14;48.29
7075;BME280;3578;51.568;6.932;2023-05-07T12:51:02;57212.47;;;-144.14;48.84
7075;BME280;3578;51.568;6.932;2023-05-07T12:53:30;57146.25;;;-144.14;46.90
7075;BME280;3578;51.568;6.932;2023-05-07T12:55:59;57051.97;;;-144.14;47.00
7075;BME280;3578;51.568;6.932;2023-05-07T12:58:30;57019.88;;;-144.14;47.59
7075;BME280;3578;51.568;6.932;2023-05-07T13:01:00;56903.50;;;-144.14;47.73
7075;BME280;3578;51.568;6.932;2023-05-07T13:03:29;56865.38;;;-144.14;50.11